createdAt,value
2022-10-09T00:01:24.676Z,10.38
2022-10-09T00:03:51.714Z,10.43
2022-10-09T00:06:20.258Z,10.49
2022-10-09T00:08:46.882Z,10.53
2022-10-09T00:11:18.857Z,10.53
2022-10-09T00:13:45.673Z,10.48
2022-10-09T00:16:13.457Z,10.44
2022-10-09T00:18:40.077Z,10.40
2022-10-09T00:21:14.727Z,10.38
2022-10-09T00:23:41.094Z,10.33
2022-10-09T00:26:08.053Z,10.30
2022-10-09T00:28:38.313Z,10.28
2022-10-09T00:31:06.200Z,10.22
2022-10-09T00:33:33.401Z,10.11
2022-10-09T00:36:02.124Z,10.12
2022-10-09T00:38:28.704Z,10.05
2022-10-09T00:40:55.092Z,10.03
2022-10-09T00:43:38.217Z,9.96
2022-10-09T00:46:05.050Z,10.02
2022-10-09T00:48:31.680Z,10.10
2022-10-09T00:50:59.518Z,10.13
2022-10-09T00:53:28.575Z,10.03
2022-10-09T00:55:55.253Z,10.01
2022-10-09T00:58:22.097Z,10.03
2022-10-09T01:00:48.833Z,10.05
2022-10-09T01:03:15.571Z,10.05
2022-10-09T01:05:53.973Z,10.05
2022-10-09T01:08:25.997Z,10.06
2022-10-09T01:11:01.631Z,10.03
2022-10-09T01:13:37.389Z,10.02
2022-10-09T01:16:10.001Z,10.01
2022-10-09T01:18:46.431Z,9.93
2022-10-09T01:21:12.846Z,9.86
2022-10-09T01:24:02.045Z,9.78
2022-10-09T01:26:46.935Z,9.62
2022-10-09T01:29:14.726Z,9.62
2022-10-09T01:31:44.457Z,9.60
2022-10-09T01:34:12.219Z,9.55
2022-10-09T01:36:39.650Z,9.51
2022-10-09T01:39:07.868Z,9.49
2022-10-09T01:41:34.723Z,9.46
2022-10-09T01:44:01.116Z,9.42
2022-10-09T01:46:28.974Z,9.42
2022-10-09T01:49:13.573Z,9.48
2022-10-09T01:52:00.237Z,9.32
2022-10-09T01:54:37.077Z,9.30
2022-10-09T01:57:04.935Z,9.33
2022-10-09T01:59:34.880Z,9.31
2022-10-09T02:02:01.371Z,9.17
2022-10-09T02:04:29.808Z,9.15
2022-10-09T02:06:56.739Z,9.13
2022-10-09T02:09:24.299Z,9.15
2022-10-09T02:11:55.563Z,9.21
2022-10-09T02:14:22.085Z,9.19
2022-10-09T02:16:54.682Z,9.17
2022-10-09T02:19:32.298Z,9.19
2022-10-09T02:22:04.872Z,9.18
2022-10-09T02:24:31.476Z,9.16
2022-10-09T02:26:58.133Z,9.13
2022-10-09T02:29:24.816Z,9.03
2022-10-09T02:31:51.339Z,8.99
2022-10-09T02:34:19.432Z,9.05
2022-10-09T02:36:46.127Z,9.07
2022-10-09T02:39:12.563Z,9.14
2022-10-09T02:41:39.075Z,9.22
2022-10-09T02:44:05.877Z,9.23
2022-10-09T02:46:32.650Z,9.30
2022-10-09T02:48:59.196Z,9.36
2022-10-09T02:51:25.847Z,9.37
2022-10-09T02:53:53.730Z,9.35
2022-10-09T02:56:20.766Z,9.38
2022-10-09T02:58:47.227Z,9.38
2022-10-09T03:01:13.909Z,9.40
2022-10-09T03:03:40.317Z,9.41
2022-10-09T03:06:09.473Z,9.42
2022-10-09T03:08:40.330Z,9.41
2022-10-09T03:11:06.896Z,9.43
2022-10-09T03:13:33.429Z,9.42
2022-10-09T03:16:06.738Z,9.41
2022-10-09T03:18:33.147Z,9.34
2022-10-09T03:20:59.695Z,9.39
2022-10-09T03:23:26.141Z,9.36
2022-10-09T03:25:59.177Z,9.35
2022-10-09T03:28:26.162Z,9.22
2022-10-09T03:30:53.040Z,9.28
2022-10-09T03:33:19.732Z,9.33
2022-10-09T03:35:46.770Z,9.23
2022-10-09T03:38:14.553Z,9.26
2022-10-09T03:40:41.006Z,9.20
2022-10-09T03:43:07.463Z,9.22
2022-10-09T03:45:33.850Z,9.20
2022-10-09T03:48:00.226Z,9.20
2022-10-09T03:50:26.568Z,9.25
2022-10-09T03:52:52.906Z,9.19
2022-10-09T03:55:19.390Z,9.12
2022-10-09T03:57:45.744Z,9.14
2022-10-09T04:00:12.444Z,9.17
2022-10-09T04:02:38.894Z,9.20
2022-10-09T04:05:05.622Z,9.19
2022-10-09T04:07:31.971Z,9.14
2022-10-09T04:09:58.353Z,9.12
2022-10-09T04:12:24.753Z,9.07
2022-10-09T04:14:51.162Z,9.03
2022-10-09T04:17:17.812Z,9.02
2022-10-09T04:19:44.205Z,9.06
2022-10-09T04:22:10.596Z,8.99
2022-10-09T04:24:36.971Z,8.98
2022-10-09T04:27:03.485Z,9.00
2022-10-09T04:29:29.900Z,8.98
2022-10-09T04:31:56.325Z,8.95
2022-10-09T04:34:22.711Z,8.93
2022-10-09T04:36:49.102Z,8.91
2022-10-09T04:39:15.522Z,8.92
2022-10-09T04:41:41.859Z,8.94
2022-10-09T04:44:08.240Z,8.93
2022-10-09T04:46:34.592Z,8.88
2022-10-09T04:49:00.935Z,8.79
2022-10-09T04:51:27.313Z,8.80
2022-10-09T04:53:58.386Z,8.81
2022-10-09T04:56:26.719Z,8.69
2022-10-09T04:58:53.102Z,8.62
2022-10-09T05:01:21.343Z,8.63
2022-10-09T05:03:48.284Z,8.56
2022-10-09T05:06:15.334Z,8.49
2022-10-09T05:08:42.388Z,8.45
2022-10-09T05:11:13.194Z,8.47
2022-10-09T05:13:42.737Z,8.45
2022-10-09T05:16:13.597Z,8.45
2022-10-09T05:18:47.693Z,8.47
2022-10-09T05:21:14.861Z,8.51
2022-10-09T05:23:41.286Z,8.52
2022-10-09T05:26:09.027Z,8.53
2022-10-09T05:28:35.585Z,8.58
2022-10-09T05:31:05.090Z,8.61
2022-10-09T05:33:31.484Z,8.54
2022-10-09T05:35:59.237Z,8.60
2022-10-09T05:38:26.210Z,8.59
2022-10-09T05:40:56.824Z,8.64
2022-10-09T05:43:42.383Z,8.60
2022-10-09T05:46:10.266Z,8.63
2022-10-09T05:48:37.512Z,8.60
2022-10-09T05:51:12.097Z,8.62
2022-10-09T05:53:39.105Z,8.45
2022-10-09T05:56:09.544Z,8.47
2022-10-09T05:58:35.888Z,8.46
2022-10-09T06:01:02.299Z,8.55
2022-10-09T06:03:28.684Z,8.62
2022-10-09T06:06:05.255Z,8.65
2022-10-09T06:08:33.884Z,8.55
2022-10-09T06:11:08.613Z,8.53
2022-10-09T06:13:35.063Z,8.53
2022-10-09T06:16:01.408Z,8.55
2022-10-09T06:18:28.017Z,8.66
2022-10-09T06:20:55.204Z,8.71
2022-10-09T06:23:22.097Z,8.68
2022-10-09T06:25:55.453Z,8.79
2022-10-09T06:28:22.149Z,8.80
2022-10-09T06:30:48.922Z,8.85
2022-10-09T06:33:15.640Z,8.87
2022-10-09T06:35:42.170Z,8.89
2022-10-09T06:38:08.732Z,8.90
2022-10-09T06:40:36.534Z,8.95
2022-10-09T06:43:03.623Z,9.03
2022-10-09T06:45:30.306Z,8.96
2022-10-09T06:47:57.107Z,9.14
2022-10-09T06:50:23.951Z,9.23
2022-10-09T06:52:50.949Z,9.44
2022-10-09T06:55:17.830Z,9.46
2022-10-09T06:57:44.252Z,9.61
2022-10-09T07:00:11.008Z,9.70
2022-10-09T07:02:41.816Z,9.70
2022-10-09T07:05:10.360Z,9.95
2022-10-09T07:07:39.488Z,10.01
2022-10-09T07:10:06.110Z,10.04
2022-10-09T07:12:34.233Z,10.15
2022-10-09T07:15:00.605Z,10.19
2022-10-09T07:17:27.439Z,10.32
2022-10-09T07:19:53.887Z,10.45
2022-10-09T07:22:24.769Z,10.55
2022-10-09T07:24:53.197Z,10.56
2022-10-09T07:27:19.550Z,10.69
2022-10-09T07:29:45.886Z,10.80
2022-10-09T07:32:12.223Z,10.88
2022-10-09T07:34:38.593Z,10.92
2022-10-09T07:37:04.998Z,10.99
2022-10-09T07:39:31.386Z,10.80
2022-10-09T07:41:57.744Z,10.87
2022-10-09T07:44:24.187Z,11.02
2022-10-09T07:46:51.523Z,11.08
2022-10-09T07:49:18.077Z,11.11
2022-10-09T07:51:45.207Z,11.15
2022-10-09T07:54:12.188Z,11.18
2022-10-09T07:56:39.080Z,11.25
2022-10-09T07:59:07.443Z,11.15
2022-10-09T08:01:34.578Z,11.16
2022-10-09T08:04:01.734Z,11.22
2022-10-09T08:06:28.401Z,11.20
2022-10-09T08:08:56.075Z,11.26
2022-10-09T08:11:23.376Z,11.22
2022-10-09T08:13:50.130Z,11.17
2022-10-09T08:16:17.764Z,11.25
2022-10-09T08:18:44.194Z,11.40
2022-10-09T08:21:19.599Z,11.40
2022-10-09T08:23:46.332Z,11.42
2022-10-09T08:26:13.880Z,11.44
2022-10-09T08:28:40.281Z,11.50
2022-10-09T08:31:10.252Z,11.65
2022-10-09T08:33:36.658Z,11.67
2022-10-09T08:36:07.795Z,11.62
2022-10-09T08:38:47.052Z,11.67
2022-10-09T08:41:14.556Z,11.73
2022-10-09T08:43:43.924Z,11.71
2022-10-09T08:46:21.169Z,11.89
2022-10-09T08:48:49.115Z,11.94
2022-10-09T08:51:20.600Z,11.81
2022-10-09T08:53:58.899Z,11.79
2022-10-09T08:56:26.472Z,11.98
2022-10-09T08:58:52.886Z,11.95
2022-10-09T09:01:36.002Z,12.19
2022-10-09T09:04:05.189Z,12.28
2022-10-09T09:06:43.928Z,12.35
2022-10-09T09:09:10.317Z,12.42
2022-10-09T09:11:36.706Z,12.49
2022-10-09T09:14:03.556Z,12.39
2022-10-09T09:16:36.019Z,12.51
2022-10-09T09:19:05.469Z,12.50
2022-10-09T09:21:47.060Z,12.57
2022-10-09T09:24:33.694Z,12.73
2022-10-09T09:27:03.245Z,12.91
2022-10-09T09:29:31.133Z,12.86
2022-10-09T09:31:59.762Z,13.01
2022-10-09T09:34:29.134Z,13.10
2022-10-09T09:36:57.410Z,12.87
2022-10-09T09:40:08.214Z,13.00
2022-10-09T09:42:18.633Z,13.08
2022-10-09T09:44:48.037Z,13.10
2022-10-09T09:47:17.549Z,13.17
2022-10-09T09:49:54.767Z,13.26
2022-10-09T09:52:21.295Z,13.49
2022-10-09T09:54:48.617Z,13.64
2022-10-09T09:57:22.744Z,13.58
2022-10-09T09:59:49.183Z,13.57
2022-10-09T10:02:20.176Z,13.68
2022-10-09T10:05:00.041Z,13.59
2022-10-09T10:07:38.870Z,13.80
2022-10-09T10:10:07.792Z,13.92
2022-10-09T10:12:39.309Z,14.02
2022-10-09T10:15:05.891Z,14.03
2022-10-09T10:17:35.298Z,14.11
2022-10-09T10:20:05.639Z,14.21
2022-10-09T10:22:32.313Z,14.14
2022-10-09T10:24:59.829Z,14.15
2022-10-09T10:27:32.323Z,14.38
2022-10-09T10:30:00.989Z,14.51
2022-10-09T10:32:33.129Z,14.62
2022-10-09T10:35:05.846Z,14.59
2022-10-09T10:37:43.960Z,14.58
2022-10-09T10:40:16.731Z,14.57
2022-10-09T10:43:01.816Z,14.62
2022-10-09T10:45:31.075Z,14.87
2022-10-09T10:47:59.762Z,14.73
2022-10-09T10:50:29.392Z,14.77
2022-10-09T10:52:58.926Z,14.70
2022-10-09T10:55:45.780Z,14.91
2022-10-09T10:58:33.100Z,15.10
2022-10-09T11:01:05.507Z,15.11
2022-10-09T11:03:35.096Z,15.12
2022-10-09T11:06:14.579Z,15.04
2022-10-09T11:08:50.181Z,15.19
2022-10-09T11:11:27.404Z,15.33
2022-10-09T11:13:53.827Z,15.38
2022-10-09T11:16:20.243Z,15.31
2022-10-09T11:18:55.707Z,15.37
2022-10-09T11:21:28.220Z,15.51
2022-10-09T11:23:54.597Z,15.66
2022-10-09T11:26:35.818Z,15.72
2022-10-09T11:29:06.640Z,15.78
2022-10-09T11:31:38.832Z,15.84
2022-10-09T11:34:10.556Z,15.98
2022-10-09T11:36:41.783Z,16.01
2022-10-09T11:39:14.309Z,16.06
2022-10-09T11:41:41.905Z,15.98
2022-10-09T11:44:27.167Z,16.12
2022-10-09T11:47:13.834Z,15.95
2022-10-09T11:49:40.176Z,16.07
2022-10-09T11:52:15.666Z,16.15
2022-10-09T11:54:42.196Z,16.20
2022-10-09T11:57:14.357Z,16.24
2022-10-09T11:59:42.537Z,16.25
2022-10-09T12:02:21.310Z,16.32
2022-10-09T12:04:54.976Z,16.30
2022-10-09T12:07:26.704Z,16.33
2022-10-09T12:09:57.327Z,16.52
2022-10-09T12:12:23.691Z,16.62
2022-10-09T12:14:50.906Z,16.71
2022-10-09T12:17:23.405Z,16.68
2022-10-09T12:19:58.564Z,16.67
2022-10-09T12:22:35.949Z,16.66
2022-10-09T12:25:07.608Z,16.68
2022-10-09T12:27:37.058Z,16.73
2022-10-09T12:30:12.730Z,17.07
2022-10-09T12:32:41.549Z,17.04
2022-10-09T12:35:14.761Z,17.06
2022-10-09T12:37:41.155Z,17.01
2022-10-09T12:40:17.689Z,17.00
2022-10-09T12:42:44.941Z,16.94
2022-10-09T12:45:37.920Z,17.03
2022-10-09T12:48:09.425Z,17.08
2022-10-09T12:50:35.782Z,16.89
2022-10-09T12:53:04.367Z,16.82
2022-10-09T12:55:32.457Z,16.91
2022-10-09T12:58:04.979Z,16.97
2022-10-09T13:00:34.973Z,17.13
2022-10-09T13:03:01.752Z,17.28
2022-10-09T13:05:38.921Z,17.13
2022-10-09T13:08:06.034Z,17.12
2022-10-09T13:10:32.448Z,17.16
2022-10-09T13:12:58.961Z,17.25
2022-10-09T13:15:28.699Z,17.30
2022-10-09T13:17:55.205Z,17.33
2022-10-09T13:20:32.161Z,17.23
2022-10-09T13:23:03.204Z,17.30
2022-10-09T13:25:33.592Z,17.51
2022-10-09T13:28:00.105Z,17.54
2022-10-09T13:30:28.205Z,17.63
2022-10-09T13:32:55.026Z,17.53
2022-10-09T13:35:21.826Z,17.60
2022-10-09T13:37:48.577Z,17.60
2022-10-09T13:40:18.041Z,17.61
2022-10-09T13:42:50.219Z,17.54
2022-10-09T13:45:16.632Z,17.56
2022-10-09T13:47:43.066Z,17.63
2022-10-09T13:50:09.646Z,17.63
2022-10-09T13:52:36.170Z,17.66
2022-10-09T13:55:02.687Z,17.50
2022-10-09T13:57:29.045Z,17.58
2022-10-09T13:59:55.609Z,17.59
2022-10-09T14:02:22.097Z,17.62
2022-10-09T14:04:48.458Z,17.69
2022-10-09T14:07:14.892Z,17.69
2022-10-09T14:09:41.325Z,17.77
2022-10-09T14:12:08.223Z,17.71
2022-10-09T14:14:34.642Z,17.76
2022-10-09T14:17:01.031Z,17.71
2022-10-09T14:19:28.084Z,17.66
2022-10-09T14:21:55.327Z,17.68
2022-10-09T14:24:21.782Z,17.85
2022-10-09T14:26:51.463Z,17.69
2022-10-09T14:29:18.669Z,17.47
2022-10-09T14:31:45.146Z,17.38
2022-10-09T14:34:12.782Z,17.42
2022-10-09T14:36:39.175Z,17.39
2022-10-09T14:39:05.667Z,17.59
2022-10-09T14:41:36.783Z,17.52
2022-10-09T14:44:04.339Z,17.46
2022-10-09T14:46:33.731Z,17.45
2022-10-09T14:49:02.421Z,17.46
2022-10-09T14:51:30.017Z,17.38
2022-10-09T14:53:58.462Z,17.40
2022-10-09T14:56:25.441Z,17.34
2022-10-09T14:58:51.876Z,17.37
2022-10-09T15:01:19.201Z,17.30
2022-10-09T15:03:46.240Z,17.29
2022-10-09T15:06:12.885Z,17.32
2022-10-09T15:08:40.825Z,17.37
2022-10-09T15:11:07.289Z,17.36
2022-10-09T15:13:35.022Z,17.35
2022-10-09T15:16:02.242Z,17.33
2022-10-09T15:18:28.970Z,17.34
2022-10-09T15:20:55.717Z,17.48
2022-10-09T15:23:22.143Z,17.37
2022-10-09T15:25:49.595Z,17.47
2022-10-09T15:28:17.121Z,17.41
2022-10-09T15:30:44.238Z,17.31
2022-10-09T15:33:10.660Z,17.45
2022-10-09T15:35:37.016Z,17.38
2022-10-09T15:38:03.377Z,17.28
2022-10-09T15:40:29.880Z,17.33
2022-10-09T15:42:56.246Z,17.27
2022-10-09T15:45:22.687Z,17.24
2022-10-09T15:47:51.141Z,17.26
2022-10-09T15:50:17.989Z,17.14
2022-10-09T15:52:44.383Z,17.11
2022-10-09T15:55:10.829Z,16.91
2022-10-09T15:57:37.210Z,16.94
2022-10-09T16:00:03.786Z,16.95
2022-10-09T16:02:30.598Z,16.99
2022-10-09T16:04:57.036Z,16.99
2022-10-09T16:07:23.435Z,16.99
2022-10-09T16:09:50.024Z,16.95
2022-10-09T16:12:16.396Z,16.96
2022-10-09T16:14:43.046Z,16.89
2022-10-09T16:17:11.467Z,16.82
2022-10-09T16:19:38.207Z,16.74
2022-10-09T16:22:05.740Z,16.83
2022-10-09T16:24:32.423Z,16.70
2022-10-09T16:26:58.940Z,16.59
2022-10-09T16:29:25.531Z,16.69
2022-10-09T16:31:54.449Z,16.63
2022-10-09T16:34:21.192Z,16.63
2022-10-09T16:36:47.590Z,16.60
2022-10-09T16:39:14.012Z,16.51
2022-10-09T16:41:42.117Z,16.44
2022-10-09T16:44:11.921Z,16.48
2022-10-09T16:46:38.360Z,16.39
2022-10-09T16:49:04.814Z,16.38
2022-10-09T16:51:32.980Z,16.31
2022-10-09T16:54:00.998Z,16.28
2022-10-09T16:56:29.748Z,16.28
2022-10-09T16:58:57.247Z,16.27
2022-10-09T17:01:24.204Z,16.18
2022-10-09T17:03:50.814Z,16.17
2022-10-09T17:06:19.667Z,16.19
2022-10-09T17:08:48.095Z,16.16
2022-10-09T17:11:14.900Z,16.05
2022-10-09T17:13:41.341Z,16.05
2022-10-09T17:16:08.520Z,16.00
2022-10-09T17:18:35.150Z,15.99
2022-10-09T17:21:05.952Z,15.94
2022-10-09T17:23:32.630Z,15.92
2022-10-09T17:25:59.264Z,15.84
2022-10-09T17:28:25.790Z,15.83
2022-10-09T17:30:52.187Z,15.76
2022-10-09T17:33:19.965Z,15.66
2022-10-09T17:35:46.556Z,15.63
2022-10-09T17:38:13.089Z,15.63
2022-10-09T17:40:39.970Z,15.58
2022-10-09T17:43:06.915Z,15.51
2022-10-09T17:45:40.267Z,15.50
2022-10-09T17:48:07.214Z,15.43
2022-10-09T17:50:33.776Z,15.33
2022-10-09T17:53:00.679Z,15.35
2022-10-09T17:55:27.649Z,15.28
2022-10-09T17:57:54.990Z,15.28
2022-10-09T18:00:22.031Z,15.26
2022-10-09T18:02:48.740Z,15.28
2022-10-09T18:05:15.277Z,15.20
2022-10-09T18:07:44.063Z,15.24
2022-10-09T18:10:10.502Z,15.21
2022-10-09T18:12:37.079Z,15.18
2022-10-09T18:15:03.737Z,15.12
2022-10-09T18:17:33.109Z,15.11
2022-10-09T18:19:59.532Z,15.11
2022-10-09T18:22:25.951Z,15.14
2022-10-09T18:24:52.342Z,15.02
2022-10-09T18:27:18.726Z,15.02
2022-10-09T18:29:45.119Z,15.02
2022-10-09T18:32:11.537Z,14.99
2022-10-09T18:34:39.301Z,14.97
2022-10-09T18:37:06.306Z,14.90
2022-10-09T18:39:32.832Z,14.90
2022-10-09T18:42:01.677Z,14.85
2022-10-09T18:44:30.193Z,14.82
2022-10-09T18:46:58.069Z,14.79
2022-10-09T18:49:27.009Z,14.75
2022-10-09T18:51:53.805Z,14.71
2022-10-09T18:54:21.722Z,14.67
2022-10-09T18:56:48.209Z,14.66
2022-10-09T18:59:16.454Z,14.62
2022-10-09T19:01:42.816Z,14.60
2022-10-09T19:04:09.245Z,14.52
2022-10-09T19:06:35.798Z,14.50
2022-10-09T19:09:02.304Z,14.42
2022-10-09T19:11:29.813Z,14.36
2022-10-09T19:13:59.416Z,14.34
2022-10-09T19:16:26.123Z,14.28
2022-10-09T19:18:58.741Z,14.20
2022-10-09T19:21:25.441Z,14.16
2022-10-09T19:23:52.850Z,14.10
2022-10-09T19:26:19.777Z,14.08
2022-10-09T19:28:47.946Z,14.07
2022-10-09T19:31:14.587Z,14.08
2022-10-09T19:33:41.960Z,14.07
2022-10-09T19:36:10.021Z,14.00
2022-10-09T19:38:36.608Z,13.94
2022-10-09T19:41:04.646Z,13.86
2022-10-09T19:43:31.863Z,13.81
2022-10-09T19:46:02.174Z,13.81
2022-10-09T19:48:28.589Z,13.79
2022-10-09T19:50:55.020Z,13.79
2022-10-09T19:53:21.407Z,13.75
2022-10-09T19:55:48.002Z,13.71
2022-10-09T19:58:16.171Z,13.73
2022-10-09T20:00:43.571Z,13.69
2022-10-09T20:03:10.014Z,13.66
2022-10-09T20:05:36.348Z,13.64
2022-10-09T20:08:02.715Z,13.63
2022-10-09T20:10:29.138Z,13.59
2022-10-09T20:12:55.530Z,13.54
2022-10-09T20:15:22.286Z,13.55
2022-10-09T20:17:49.217Z,13.53
2022-10-09T20:20:15.598Z,13.54
2022-10-09T20:22:41.968Z,13.52
2022-10-09T20:25:08.591Z,13.42
2022-10-09T20:27:34.931Z,13.39
2022-10-09T20:30:01.373Z,13.33
2022-10-09T20:32:29.039Z,13.36
2022-10-09T20:34:57.788Z,13.34
2022-10-09T20:37:24.308Z,13.33
2022-10-09T20:39:50.657Z,13.33
2022-10-09T20:42:17.016Z,13.34
2022-10-09T20:44:43.458Z,13.09
2022-10-09T20:47:10.399Z,13.05
2022-10-09T20:49:36.780Z,13.10
2022-10-09T20:52:03.139Z,13.04
2022-10-09T20:54:30.382Z,13.09
2022-10-09T20:56:56.746Z,13.10
2022-10-09T20:59:23.178Z,13.01
2022-10-09T21:01:52.356Z,13.00
2022-10-09T21:04:18.790Z,12.95
2022-10-09T21:06:45.225Z,12.94
2022-10-09T21:09:11.658Z,12.86
2022-10-09T21:11:39.851Z,12.95
2022-10-09T21:14:06.235Z,12.91
2022-10-09T21:16:32.985Z,12.88
2022-10-09T21:19:00.776Z,12.91
2022-10-09T21:21:27.904Z,12.89
2022-10-09T21:23:55.463Z,12.86
2022-10-09T21:26:22.757Z,12.66
2022-10-09T21:28:49.624Z,12.56
2022-10-09T21:31:17.398Z,12.71
2022-10-09T21:33:43.843Z,12.59
2022-10-09T21:36:11.942Z,12.64
2022-10-09T21:38:39.400Z,12.70
2022-10-09T21:41:05.838Z,12.63
2022-10-09T21:43:32.190Z,12.67
2022-10-09T21:46:01.249Z,12.73
2022-10-09T21:48:27.580Z,12.77
2022-10-09T21:50:53.952Z,12.80
2022-10-09T21:53:20.379Z,12.80
2022-10-09T21:55:46.768Z,12.80
2022-10-09T21:58:13.163Z,12.78
2022-10-09T22:00:39.569Z,12.77
2022-10-09T22:03:05.997Z,12.71
2022-10-09T22:05:32.366Z,12.71
2022-10-09T22:07:58.775Z,12.68
2022-10-09T22:10:25.186Z,12.68
2022-10-09T22:12:52.028Z,12.59
2022-10-09T22:15:18.827Z,12.56
2022-10-09T22:17:45.225Z,12.52
2022-10-09T22:20:13.021Z,12.46
2022-10-09T22:22:39.745Z,12.38
2022-10-09T22:25:06.434Z,12.31
2022-10-09T22:27:32.789Z,12.23
2022-10-09T22:29:59.167Z,12.27
2022-10-09T22:32:25.542Z,12.30
2022-10-09T22:34:52.147Z,12.25
2022-10-09T22:37:18.515Z,11.95
2022-10-09T22:39:44.890Z,11.99
2022-10-09T22:42:11.255Z,12.09
2022-10-09T22:44:37.611Z,11.97
2022-10-09T22:47:03.977Z,12.01
2022-10-09T22:49:30.335Z,12.10
2022-10-09T22:51:56.797Z,12.09
2022-10-09T22:54:23.292Z,12.00
2022-10-09T22:56:49.763Z,12.05
2022-10-09T22:59:17.978Z,11.89
2022-10-09T23:01:48.274Z,11.85
2022-10-09T23:04:16.075Z,11.89
2022-10-09T23:06:43.175Z,11.94
2022-10-09T23:09:10.688Z,11.99
2022-10-09T23:11:37.058Z,12.01
2022-10-09T23:14:03.505Z,12.00
2022-10-09T23:16:30.020Z,12.09
2022-10-09T23:18:58.251Z,11.84
2022-10-09T23:21:24.990Z,11.91
2022-10-09T23:23:51.525Z,11.98
2022-10-09T23:26:19.331Z,12.00
2022-10-09T23:28:50.110Z,11.94
2022-10-09T23:31:16.595Z,11.71
2022-10-09T23:33:43.909Z,11.87
2022-10-09T23:36:12.113Z,11.91
2022-10-09T23:38:38.772Z,11.96
2022-10-09T23:41:06.648Z,11.97
2022-10-09T23:43:33.981Z,11.91
2022-10-09T23:46:01.635Z,11.77
2022-10-09T23:48:28.646Z,11.77
2022-10-09T23:50:55.132Z,11.89
2022-10-09T23:53:21.878Z,11.92
2022-10-09T23:55:48.369Z,11.87
2022-10-09T23:58:19.885Z,11.86
